Time;durP1;ratioP1;P1;durP2;ratioP2;P2;SDS_P1;SDS_P2;PMS_P1;PMS_P2;Temp;Humidity;BMP_temperature;BMP_pressure;BME280_temperature;BME280_humidity;BME280_pressure;Samples;Min_cycle;Max_cycle;Signal;HPM_P1;HPM_P2
2023/08/09 00:00:23;;;;;;;3.10;1.48;;;;;;;23.39;50.58;100978.19;5034938;28;20040;-63
2023/08/09 00:02:50;;;;;;;4.75;1.50;;;;;;;23.41;50.08;100984.28;5052991;28;20504;-63
2023/08/09 00:05:17;;;;;;;2.05;1.40;;;;;;;23.39;50.43;100975.47;5052865;28;20037;-63
2023/08/09 00:07:43;;;;;;;6.32;1.83;;;;;;;23.43;50.74;100978.59;5052642;28;20048;-63
2023/08/09 00:10:09;;;;;;;1.92;1.30;;;;;;;23.42;50.58;100972.28;5052678;28;20033;-63
2023/08/09 00:12:35;;;;;;;6.75;2.08;;;;;;;23.41;50.69;100969.78;5051370;28;20033;-63
2023/08/09 00:15:00;;;;;;;3.67;1.45;;;;;;;23.42;50.29;100971.47;5052480;28;20045;-64
2023/08/09 00:17:25;;;;;;;3.25;1.65;;;;;;;23.45;50.57;100977.34;5034761;28;20072;-63
2023/08/09 00:19:51;;;;;;;1.98;1.48;;;;;;;23.47;50.56;100974.41;5051567;28;20033;-63
2023/08/09 00:22:16;;;;;;;3.65;2.20;;;;;;;23.52;51.15;100978.19;5052566;28;20117;-63
2023/08/09 00:24:42;;;;;;;5.43;1.70;;;;;;;23.52;50.34;100971.88;5034543;28;20401;-63
2023/08/09 00:27:08;;;;;;;3.63;1.50;;;;;;;23.50;50.63;100972.09;5051234;28;20044;-63
2023/08/09 00:29:33;;;;;;;3.33;1.50;;;;;;;23.52;50.32;100971.88;5051147;28;20037;-65
2023/08/09 00:31:58;;;;;;;6.72;2.05;;;;;;;23.52;51.13;100978.19;5051507;28;20551;-65
2023/08/09 00:34:24;;;;;;;5.13;1.80;;;;;;;23.57;50.33;100980.28;5051445;28;20056;-63
2023/08/09 00:36:49;;;;;;;4.75;2.03;;;;;;;23.56;50.81;100978.63;5051448;28;20033;-63
2023/08/09 00:39:15;;;;;;;2.97;1.52;;;;;;;23.55;50.76;100977.78;5052624;28;20502;-63
2023/08/09 00:41:41;;;;;;;3.47;1.50;;;;;;;23.53;50.81;100985.38;5064328;28;20036;-63
2023/08/09 00:44:06;;;;;;;2.13;1.38;;;;;;;23.52;51.00;100978.19;5058568;28;20033;-68
2023/08/09 00:46:31;;;;;;;5.00;1.70;;;;;;;23.48;50.40;100976.09;5057054;28;20036;-64
2023/08/09 00:48:57;;;;;;;6.45;1.60;;;;;;;23.47;50.94;100977.16;5054625;28;20086;-63
2023/08/09 00:51:23;;;;;;;2.58;1.38;;;;;;;23.46;50.46;100984.50;5034680;28;20051;-63
2023/08/09 00:53:48;;;;;;;5.03;1.23;;;;;;;23.46;50.85;100979.03;5051188;28;20037;-64
2023/08/09 00:56:14;;;;;;;3.90;1.38;;;;;;;23.49;50.97;100989.56;5050846;28;20033;-64
2023/08/09 00:58:39;;;;;;;6.53;1.52;;;;;;;23.49;51.11;100989.56;5034301;28;20029;-64
2023/08/09 01:01:06;;;;;;;2.10;1.23;;;;;;;23.51;50.60;100992.06;5050840;28;20438;-63
2023/08/09 01:03:32;;;;;;;4.40;1.20;;;;;;;23.48;50.97;100995.25;5051275;28;20025;-63
2023/08/09 01:06:04;;;;;;;2.55;1.67;;;;;;;23.47;51.74;100986.19;5050736;28;20404;-63
2023/08/09 01:08:32;;;;;;;;;;;;;;;23.50;50.21;100996.72;5051363;28;20025;-64
2023/08/09 01:11:09;;;;;;;1.83;1.38;;;;;;;23.48;51.50;100993.31;5054405;28;19978;-64
2023/08/09 01:13:37;;;;;;;2.65;1.48;;;;;;;23.46;51.37;100989.13;5021089;28;20110;-63
2023/08/09 01:16:05;;;;;;;7.07;2.03;;;;;;;23.46;51.45;100989.97;5054452;28;20579;-63
2023/08/09 01:18:30;;;;;;;3.75;1.38;;;;;;;23.46;51.41;100984.50;5037745;28;20077;-63
2023/08/09 01:20:57;;;;;;;4.18;1.88;;;;;;;23.44;51.74;100985.75;5037697;28;20426;-63
2023/08/09 01:23:29;;;;;;;5.57;1.73;;;;;;;23.47;51.35;100988.94;5054455;28;20017;-63
2023/08/09 01:25:54;;;;;;;1.92;1.30;;;;;;;23.43;51.31;100984.06;5054383;28;20108;-63
2023/08/09 01:28:20;;;;;;;4.20;1.42;;;;;;;23.47;51.32;100990.81;5054319;28;20021;-63
2023/08/09 01:30:45;;;;;;;3.35;1.48;;;;;;;23.48;51.97;100984.31;5054070;28;20021;-63
2023/08/09 01:33:11;;;;;;;9.68;2.15;;;;;;;23.48;51.53;100985.13;5037704;28;20464;-63
2023/08/09 01:35:42;;;;;;;2.90;1.40;;;;;;;23.49;51.98;100981.34;5054434;28;20086;-64
2023/08/09 01:38:16;;;;;;;4.50;1.40;;;;;;;23.44;51.25;100983.03;5054416;28;20162;-63
2023/08/09 01:40:43;;;;;;;1.65;1.35;;;;;;;23.42;51.80;100985.13;5055325;28;20082;-63
2023/08/09 01:43:08;;;;;;;2.63;1.45;;;;;;;23.42;51.51;100985.94;5054266;28;20063;-63
2023/08/09 01:45:34;;;;;;;2.03;1.40;;;;;;;23.42;51.55;100975.00;5054330;28;20029;-64
2023/08/09 01:48:00;;;;;;;2.15;1.30;;;;;;;23.42;52.18;100999.63;5053945;28;20033;-64
2023/08/09 01:50:29;;;;;;;2.65;1.73;;;;;;;23.43;51.93;101001.31;5037123;28;20412;-64
2023/08/09 01:52:56;;;;;;;2.80;1.17;;;;;;;23.41;51.40;101002.59;5054078;28;20044;-63
2023/08/09 01:55:24;;;;;;;0.52;0.30;;;;;;;23.36;52.00;101011.38;5037698;28;20076;-64
2023/08/09 01:57:49;;;;;;;0.35;0.30;;;;;;;23.27;51.92;101009.91;5054226;28;20056;-64
2023/08/09 02:00:17;;;;;;;0.25;0.20;;;;;;;23.20;51.69;101015.34;5054139;28;20404;-68
2023/08/09 02:02:43;;;;;;;0.40;0.20;;;;;;;23.10;51.85;101016.78;5053678;28;20036;-69
2023/08/09 02:05:09;;;;;;;0.50;0.30;;;;;;;22.98;51.56;101029.34;5037187;28;20171;-68
2023/08/09 02:07:35;;;;;;;0.43;0.40;;;;;;;22.84;51.40;101019.41;5053423;28;20123;-68
2023/08/09 02:10:01;;;;;;;0.88;0.40;;;;;;;22.74;52.23;101032.63;5054809;28;20511;-70
2023/08/09 02:12:26;;;;;;;1.27;0.50;;;;;;;22.59;51.88;101040.91;5053772;28;20051;-69
2023/08/09 02:14:51;;;;;;;2.17;0.70;;;;;;;22.45;51.90;101034.53;5053459;28;20041;-69
2023/08/09 02:17:17;;;;;;;1.23;0.65;;;;;;;22.37;52.31;101034.72;5053586;28;20033;-69
2023/08/09 02:19:42;;;;;;;0.90;0.60;;;;;;;22.27;52.24;101052.50;5054906;28;20507;-69
2023/08/09 02:22:10;;;;;;;1.13;0.57;;;;;;;22.16;52.31;101051.19;5036267;28;20033;-69
2023/08/09 02:24:35;;;;;;;3.25;0.73;;;;;;;22.10;52.32;101056.56;5053376;28;20033;-69
2023/08/09 02:27:00;;;;;;;2.45;0.98;;;;;;;22.01;52.84;101050.41;5053368;28;20522;-68
2023/08/09 02:29:26;;;;;;;0.75;0.68;;;;;;;21.93;52.37;101045.97;5054807;28;20575;-68
2023/08/09 02:31:52;;;;;;;0.60;0.60;;;;;;;21.88;51.69;101053.06;5053395;28;20029;-68
2023/08/09 02:34:19;;;;;;;1.20;1.00;;;;;;;21.83;51.99;101052.78;5036802;28;20067;-68
2023/08/09 02:36:45;;;;;;;1.65;0.68;;;;;;;21.80;52.31;101050.44;5053575;28;20032;-69
2023/08/09 02:39:11;;;;;;;1.15;0.85;;;;;;;21.78;52.71;101053.34;5053215;28;20086;-68
2023/08/09 02:41:37;;;;;;;0.98;0.77;;;;;;;21.77;52.30;101051.69;5053905;28;20446;-67
2023/08/09 02:44:05;;;;;;;4.05;1.02;;;;;;;21.78;52.09;101052.50;5053452;28;20025;-67
2023/08/09 02:46:30;;;;;;;0.80;0.70;;;;;;;21.78;51.92;101052.50;5054490;28;20040;-67
2023/08/09 02:48:55;;;;;;;1.10;0.70;;;;;;;21.78;52.16;101060.66;5054299;28;20021;-66
2023/08/09 02:51:21;;;;;;;0.93;0.80;;;;;;;21.79;52.14;101059.66;5054294;28;20045;-65
2023/08/09 02:54:01;;;;;;;3.05;1.00;;;;;;;21.84;52.80;101062.63;5052916;28;20042;-65
2023/08/09 02:56:26;;;;;;;0.90;0.90;;;;;;;21.86;51.69;101077.75;5053074;28;20404;-64
2023/08/09 02:58:54;;;;;;;1.15;0.98;;;;;;;21.89;51.51;101073.81;5053273;28;20115;-65
2023/08/09 03:01:21;;;;;;;1.42;0.90;;;;;;;21.93;51.93;101066.94;5036474;28;20071;-65
2023/08/09 03:03:50;;;;;;;2.30;0.98;;;;;;;21.92;52.18;101062.50;5052779;28;20094;-64
2023/08/09 03:06:22;;;;;;;2.53;0.88;;;;;;;21.96;52.27;101072.00;5035909;28;20046;-65
2023/08/09 03:08:48;;;;;;;1.40;0.80;;;;;;;21.95;52.27;101073.88;5036844;28;20455;-64
2023/08/09 03:11:22;;;;;;;1.52;1.05;;;;;;;21.98;51.77;101076.22;5052576;28;20119;-65
2023/08/09 03:13:47;;;;;;;1.13;0.70;;;;;;;21.98;52.00;101078.09;5052597;28;20033;-65
2023/08/09 03:16:13;;;;;;;1.85;1.00;;;;;;;21.96;52.12;101072.84;5035313;28;20412;-64
2023/08/09 03:18:39;;;;;;;2.20;1.67;;;;;;;21.96;51.80;101074.72;5052422;28;20041;-64
2023/08/09 03:21:05;;;;;;;3.53;1.10;;;;;;;21.95;52.27;101076.59;5053756;28;20112;-65
2023/08/09 03:23:30;;;;;;;0.82;0.60;;;;;;;21.95;51.39;101075.75;5035842;28;20475;-65
2023/08/09 03:25:55;;;;;;;2.08;0.73;;;;;;;21.93;51.40;101083.31;5053786;28;20033;-64
2023/08/09 03:28:21;;;;;;;3.60;1.13;;;;;;;21.91;52.08;101074.47;5053458;28;20381;-64
2023/08/09 03:30:46;;;;;;;1.00;0.77;;;;;;;21.92;52.12;101087.91;5053491;28;20037;-64
2023/08/09 03:33:12;;;;;;;1.52;1.00;;;;;;;21.94;52.16;101085.00;5034634;28;20032;-64
2023/08/09 03:35:37;;;;;;;1.60;1.05;;;;;;;21.95;51.14;101089.41;5052329;28;20037;-64
2023/08/09 03:38:03;;;;;;;1.00;0.75;;;;;;;21.94;51.47;101074.09;5052033;28;20037;-65
2023/08/09 03:40:28;;;;;;;3.42;1.10;;;;;;;21.95;51.85;101075.75;5035231;28;20052;-65
2023/08/09 03:42:53;;;;;;;1.15;1.02;;;;;;;21.92;51.70;101081.59;5053119;28;20033;-65
2023/08/09 03:45:19;;;;;;;5.95;1.40;;;;;;;21.90;51.58;101089.16;5053274;28;20029;-66
2023/08/09 03:47:45;;;;;;;1.98;1.65;;;;;;;21.86;52.36;101080.47;5051815;28;20028;-65
2023/08/09 03:50:10;;;;;;;3.22;1.08;;;;;;;21.84;52.26;101090.75;5053154;28;20043;-65
2023/08/09 03:52:36;;;;;;;1.05;0.90;;;;;;;21.82;52.27;101100.16;5051802;28;20444;-65
2023/08/09 03:55:02;;;;;;;1.67;1.00;;;;;;;21.80;51.85;101100.34;5051866;28;20120;-65
2023/08/09 03:57:27;;;;;;;1.10;0.70;;;;;;;21.82;52.69;101108.34;5051791;28;20029;-64
2023/08/09 03:59:54;;;;;;;2.40;1.13;;;;;;;21.83;51.70;101115.50;5051559;28;20116;-64
2023/08/09 04:02:20;;;;;;;1.83;1.10;;;;;;;21.85;52.36;101124.31;5051703;28;20025;-64
2023/08/09 04:04:45;;;;;;;2.47;1.40;;;;;;;21.84;51.84;101120.75;5052800;28;20033;-63
2023/08/09 04:07:12;;;;;;;2.40;1.38;;;;;;;21.86;52.33;101121.38;5052306;28;20036;-63
2023/08/09 04:09:37;;;;;;;2.03;1.10;;;;;;;21.90;51.86;101128.19;5052963;28;20098;-64
2023/08/09 04:12:05;;;;;;;2.90;0.70;;;;;;;21.92;51.56;101133.44;5051729;28;20029;-63
2023/08/09 04:14:30;;;;;;;1.35;0.80;;;;;;;21.94;51.97;101131.38;5053129;28;20025;-63
2023/08/09 04:16:58;;;;;;;1.55;0.80;;;;;;;21.98;52.11;101135.38;5051597;28;20543;-63
2023/08/09 04:19:26;;;;;;;1.23;1.00;;;;;;;22.00;51.58;101134.16;5051674;28;20025;-63
2023/08/09 04:21:52;;;;;;;1.55;1.02;;;;;;;22.02;51.56;101131.25;5051402;28;20033;-63
2023/08/09 04:24:18;;;;;;;3.83;1.17;;;;;;;22.04;51.63;101134.59;5051597;28;20381;-63
2023/08/09 04:26:43;;;;;;;0.93;0.82;;;;;;;22.01;51.36;101121.34;5051368;28;20036;-63
2023/08/09 04:29:09;;;;;;;2.75;1.30;;;;;;;22.07;51.23;101134.22;5051417;28;20396;-63
2023/08/09 04:31:34;;;;;;;3.25;1.10;;;;;;;22.08;52.03;101125.00;5052478;28;20029;-63
2023/08/09 04:34:00;;;;;;;3.45;1.48;;;;;;;22.10;51.48;101136.56;5051546;28;20041;-63
2023/08/09 04:36:26;;;;;;;4.25;1.30;;;;;;;22.11;51.79;101130.03;5051613;28;20508;-63
2023/08/09 04:38:51;;;;;;;1.63;1.20;;;;;;;22.17;51.71;101139.31;5051633;28;20035;-62
2023/08/09 04:41:17;;;;;;;1.55;1.02;;;;;;;22.19;51.97;101138.13;5051508;28;20377;-63
2023/08/09 04:43:43;;;;;;;2.63;1.50;;;;;;;22.24;51.27;101146.53;5052789;28;20554;-63
2023/08/09 04:46:10;;;;;;;3.03;1.30;;;;;;;22.27;51.24;101148.03;5055572;28;20110;-63
2023/08/09 04:48:37;;;;;;;4.85;1.10;;;;;;;22.34;51.90;101152.50;5055511;28;20099;-63
2023/08/09 04:51:03;;;;;;;1.65;1.17;;;;;;;22.39;52.02;101152.75;5055431;28;20400;-65
2023/08/09 04:53:29;;;;;;;1.40;1.30;;;;;;;22.46;51.27;101150.91;5056725;28;20499;-63
2023/08/09 04:55:54;;;;;;;2.28;1.52;;;;;;;22.57;51.84;101158.56;5055248;28;20017;-63
2023/08/09 04:58:20;;;;;;;2.20;1.40;;;;;;;22.70;51.10;101173.41;5055300;28;20499;-63
2023/08/09 05:00:45;;;;;;;4.78;1.48;;;;;;;22.82;51.17;101166.31;5038321;28;20384;-63
2023/08/09 05:03:11;;;;;;;1.45;1.35;;;;;;;22.93;50.61;101182.16;5054780;28;20025;-63
2023/08/09 05:05:37;;;;;;;3.45;1.20;;;;;;;23.02;51.35;101173.59;5054973;28;20495;-63
2023/08/09 05:08:03;;;;;;;4.80;1.40;;;;;;;23.12;50.61;101171.31;5054478;28;20476;-63
2023/08/09 05:10:29;;;;;;;1.88;1.30;;;;;;;23.25;51.18;101184.22;5054599;28;20144;-64
2023/08/09 05:12:54;;;;;;;6.50;1.38;;;;;;;23.40;50.56;101181.38;5038127;28;20028;-64
2023/08/09 05:15:19;;;;;;;4.05;1.30;;;;;;;23.52;50.80;101180.59;5054521;28;20492;-63
2023/08/09 05:17:45;;;;;;;2.30;0.90;;;;;;;23.66;50.33;101182.31;5056216;28;20096;-63
2023/08/09 05:20:11;;;;;;;2.63;1.90;;;;;;;23.80;49.82;101177.72;5055658;28;20029;-64
2023/08/09 05:22:37;;;;;;;2.70;1.27;;;;;;;23.93;49.78;101182.38;5038411;28;20021;-63
2023/08/09 05:25:03;;;;;;;4.55;1.33;;;;;;;24.03;50.17;101189.16;5038043;28;20021;-63
2023/08/09 05:27:28;;;;;;;4.18;1.42;;;;;;;24.10;50.07;101194.66;5055503;28;20027;-63
2023/08/09 05:29:53;;;;;;;2.03;1.13;;;;;;;24.15;50.06;101181.16;5054405;28;20036;-64
2023/08/09 05:32:20;;;;;;;3.95;1.92;;;;;;;24.23;49.77;101178.25;5055067;28;20025;-63
2023/08/09 05:34:46;;;;;;;4.13;1.40;;;;;;;24.34;50.08;101180.38;5054878;28;20024;-63
2023/08/09 05:37:11;;;;;;;1.45;1.35;;;;;;;24.43;49.25;101173.59;5056376;28;20020;-63
2023/08/09 05:39:37;;;;;;;3.72;1.50;;;;;;;24.44;49.64;101180.78;5054869;28;20112;-63
2023/08/09 05:42:03;;;;;;;2.17;1.13;;;;;;;24.49;48.98;101186.47;5054117;28;20021;-64
2023/08/09 05:44:28;;;;;;;2.10;1.40;;;;;;;24.58;49.07;101181.59;5055520;28;20032;-64
2023/08/09 05:46:54;;;;;;;2.72;1.40;;;;;;;24.63;48.86;101179.91;5055538;28;20053;-63
2023/08/09 05:49:20;;;;;;;1.58;0.80;;;;;;;24.66;48.62;101182.22;5054382;28;20021;-63
2023/08/09 05:51:45;;;;;;;1.83;1.33;;;;;;;24.73;48.65;101191.31;5037398;28;20060;-64
2023/08/09 05:54:10;;;;;;;1.33;1.13;;;;;;;24.84;48.88;101201.66;5055521;28;20025;-67
2023/08/09 05:56:37;;;;;;;2.28;1.30;;;;;;;24.90;48.47;101203.50;5053232;28;20464;-64
2023/08/09 05:59:04;;;;;;;1.15;1.00;;;;;;;25.13;48.51;101210.41;5054044;28;20037;-62
2023/08/09 06:01:29;;;;;;;1.95;1.42;;;;;;;25.29;47.95;101201.75;5037484;28;20087;-63
2023/08/09 06:03:55;;;;;;;2.53;1.48;;;;;;;25.29;48.17;101196.25;5020613;28;20041;-63
2023/08/09 06:06:21;;;;;;;4.22;1.40;;;;;;;25.29;48.25;101207.22;5053899;28;20112;-63
2023/08/09 06:08:47;;;;;;;3.72;1.10;;;;;;;25.29;48.01;101213.53;5054012;28;20503;-63
2023/08/09 06:11:13;;;;;;;1.38;1.02;;;;;;;25.39;47.85;101215.84;5046899;28;20492;-63
2023/08/09 06:13:38;;;;;;;4.95;1.40;;;;;;;25.40;47.74;101218.34;5067036;28;20040;-63
2023/08/09 06:16:04;;;;;;;2.88;1.20;;;;;;;25.42;47.79;101229.97;5053288;28;20041;-63
2023/08/09 06:18:29;;;;;;;1.70;1.00;;;;;;;25.42;47.58;101231.88;5036651;28;20037;-63
2023/08/09 06:20:55;;;;;;;2.05;1.08;;;;;;;25.39;47.92;101227.66;5054875;28;20029;-63
2023/08/09 06:23:20;;;;;;;1.25;1.15;;;;;;;25.40;46.99;101225.75;5054690;28;20127;-63
2023/08/09 06:25:47;;;;;;;3.53;1.58;;;;;;;25.41;47.19;101224.69;5036803;28;20053;-63
2023/08/09 06:28:13;;;;;;;3.30;1.02;;;;;;;25.51;47.25;101222.38;5053488;28;20041;-63
2023/08/09 06:30:39;;;;;;;1.25;1.08;;;;;;;25.44;47.14;101235.22;5053182;28;20036;-63
2023/08/09 06:33:04;;;;;;;0.93;0.82;;;;;;;25.50;47.11;101245.38;5053179;28;20025;-63
2023/08/09 06:35:30;;;;;;;3.22;1.00;;;;;;;25.47;47.43;101251.28;5053134;28;20403;-62
2023/08/09 06:37:55;;;;;;;2.88;1.30;;;;;;;25.41;47.12;101247.47;5053109;28;20029;-63
2023/08/09 06:40:21;;;;;;;2.13;1.42;;;;;;;25.42;47.14;101256.56;5053105;28;20036;-63
2023/08/09 06:42:47;;;;;;;2.50;1.35;;;;;;;25.46;47.29;101257.81;5054402;28;20079;-63
2023/08/09 06:45:12;;;;;;;1.17;0.93;;;;;;;25.50;47.19;101259.09;5036334;28;20033;-64
2023/08/09 06:47:38;;;;;;;5.45;2.28;;;;;;;25.64;47.16;101270.88;5053290;28;20025;-63
2023/08/09 06:50:05;;;;;;;2.15;1.48;;;;;;;25.65;47.40;101262.44;5052823;28;20037;-63
2023/08/09 06:52:31;;;;;;;1.70;1.42;;;;;;;25.62;47.38;101265.59;5052855;28;20518;-64
2023/08/09 06:54:57;;;;;;;5.55;1.52;;;;;;;25.68;47.26;101272.13;5036265;28;20040;-64
2023/08/09 06:57:23;;;;;;;2.92;1.17;;;;;;;25.89;46.86;101269.06;5052693;28;20041;-64
2023/08/09 06:59:49;;;;;;;1.52;0.80;;;;;;;26.25;46.16;101268.47;5036457;28;20029;-63
2023/08/09 07:02:14;;;;;;;3.58;1.30;;;;;;;26.46;46.45;101279.97;5054351;28;20025;-63
2023/08/09 07:04:40;;;;;;;0.80;0.80;;;;;;;26.52;46.08;101270.81;5053528;28;20029;-63
2023/08/09 07:07:05;;;;;;;2.58;1.38;;;;;;;26.82;45.22;101271.03;5052591;28;20068;-62
2023/08/09 07:09:31;;;;;;;4.15;1.00;;;;;;;27.38;45.37;101270.06;5052452;28;20036;-62
2023/08/09 07:11:57;;;;;;;2.60;1.10;;;;;;;27.60;45.29;101269.41;5053040;28;20112;-63
2023/08/09 07:14:24;;;;;;;1.67;1.20;;;;;;;27.95;44.65;101271.50;5054114;28;20087;-64
2023/08/09 07:16:49;;;;;;;5.40;1.33;;;;;;;28.21;44.32;101266.50;5053691;28;20577;-63
2023/08/09 07:19:15;;;;;;;2.10;1.23;;;;;;;28.45;43.46;101277.63;5052454;28;20037;-63
2023/08/09 07:21:40;;;;;;;2.17;1.05;;;;;;;28.69;43.38;101285.72;5035754;28;20447;-63
2023/08/09 07:24:06;;;;;;;1.52;1.05;;;;;;;29.06;43.53;101293.81;5053495;28;20416;-63
2023/08/09 07:26:32;;;;;;;4.15;1.08;;;;;;;29.45;42.89;101301.38;5052294;28;20465;-63
2023/08/09 07:28:57;;;;;;;1.55;1.05;;;;;;;29.78;42.30;101295.19;5052264;28;20029;-63
2023/08/09 07:31:23;;;;;;;2.30;1.42;;;;;;;30.09;41.97;101297.53;5053278;28;20029;-64
2023/08/09 07:33:49;;;;;;;2.35;1.02;;;;;;;30.27;41.85;101299.25;5036135;28;20044;-63
2023/08/09 07:36:15;;;;;;;4.10;1.42;;;;;;;30.40;41.59;101310.88;5052190;28;20037;-63
2023/08/09 07:38:40;;;;;;;1.70;0.80;;;;;;;30.59;41.21;101308.75;5035470;28;20059;-63
2023/08/09 07:41:06;;;;;;;8.40;1.23;;;;;;;30.80;40.79;101309.91;5035569;28;20040;-63
2023/08/09 07:43:31;;;;;;;1.58;0.88;;;;;;;31.03;40.20;101305.09;5051821;28;20496;-63
2023/08/09 07:45:56;;;;;;;1.35;0.90;;;;;;;31.19;40.38;101303.41;5051898;28;20029;-63
2023/08/09 07:48:22;;;;;;;2.03;1.25;;;;;;;31.36;40.29;101306.97;5053121;28;20060;-63
2023/08/09 07:50:48;;;;;;;2.70;1.13;;;;;;;31.43;39.95;101304.03;5052776;28;20041;-63
2023/08/09 07:53:13;;;;;;;0.80;0.70;;;;;;;31.55;39.67;101305.63;5035324;28;20045;-63
2023/08/09 07:55:39;;;;;;;4.45;1.15;;;;;;;31.80;38.89;101315.41;5052093;28;20056;-63
2023/08/09 07:58:05;;;;;;;2.08;0.93;;;;;;;31.87;39.60;101314.09;5051846;28;20036;-63
2023/08/09 08:00:31;;;;;;;1.42;0.70;;;;;;;31.78;39.64;101318.41;5051491;28;20098;-63
2023/08/09 08:02:56;;;;;;;3.25;0.80;;;;;;;31.43;39.64;101320.66;5052961;28;20036;-64
2023/08/09 08:05:22;;;;;;;3.17;1.52;;;;;;;31.09;39.73;101317.09;5034850;28;20068;-63
2023/08/09 08:07:47;;;;;;;2.42;0.77;;;;;;;30.85;39.87;101318.34;5051674;28;20043;-63
2023/08/09 08:10:14;;;;;;;2.33;0.70;;;;;;;30.67;39.99;101322.16;5051390;28;20037;-63
2023/08/09 08:12:40;;;;;;;2.55;1.00;;;;;;;30.93;39.31;101321.53;5051729;28;20036;-63
2023/08/09 08:15:06;;;;;;;1.55;0.90;;;;;;;31.16;38.89;101320.50;5051336;28;20044;-63
2023/08/09 08:17:35;;;;;;;2.67;0.93;;;;;;;31.45;38.57;101324.84;5051323;28;20041;-63
2023/08/09 08:20:04;;;;;;;1.40;0.90;;;;;;;31.59;38.66;101331.75;5052392;28;20443;-64
2023/08/09 08:22:30;;;;;;;3.97;1.13;;;;;;;31.52;38.73;101327.50;5052704;28;20108;-63
2023/08/09 08:24:55;;;;;;;2.70;0.88;;;;;;;31.64;37.83;101326.25;5052591;28;20120;-64
2023/08/09 08:27:21;;;;;;;1.30;0.65;;;;;;;31.56;38.39;101323.94;5018206;28;20068;-63
2023/08/09 08:29:46;;;;;;;3.85;2.05;;;;;;;31.30;38.65;101332.94;5051180;28;20040;-63
2023/08/09 08:32:11;;;;;;;2.17;0.77;;;;;;;31.27;38.03;101333.44;5051342;28;20025;-63
2023/08/09 08:34:37;;;;;;;2.90;0.85;;;;;;;31.43;37.72;101343.66;5051430;28;20044;-63
2023/08/09 08:37:04;;;;;;;1.20;0.63;;;;;;;31.41;38.06;101340.28;5052538;28;20040;-63
2023/08/09 08:39:31;;;;;;;3.53;0.82;;;;;;;31.73;37.25;101337.75;5051266;28;20033;-63
2023/08/09 08:41:56;;;;;;;1.73;0.80;;;;;;;31.87;37.68;101339.03;5052452;28;20500;-63
2023/08/09 08:44:25;;;;;;;3.45;0.90;;;;;;;31.93;37.44;101342.72;5052506;28;20082;-63
2023/08/09 08:46:51;;;;;;;1.42;1.13;;;;;;;31.92;37.81;101346.56;5051114;28;20032;-63
2023/08/09 08:49:20;;;;;;;1.80;0.75;;;;;;;31.54;37.70;101353.84;5051186;28;20037;-63
2023/08/09 08:51:47;;;;;;;2.25;0.80;;;;;;;31.31;38.21;101351.22;5051147;28;20037;-63
2023/08/09 08:54:13;;;;;;;2.30;0.93;;;;;;;31.08;38.20;101352.25;5034709;28;20029;-63
2023/08/09 08:56:39;;;;;;;2.20;1.05;;;;;;;30.90;38.29;101359.94;5051070;28;20569;-63
2023/08/09 08:59:05;;;;;;;7.32;1.38;;;;;;;30.73;38.09;101359.91;5051068;28;20044;-63
2023/08/09 09:01:32;;;;;;;1.27;0.80;;;;;;;30.63;38.71;101361.66;5050946;28;20094;-63
2023/08/09 09:03:57;;;;;;;2.53;1.00;;;;;;;30.58;38.31;101367.91;5052392;28;20037;-63
2023/08/09 09:06:23;;;;;;;1.98;1.38;;;;;;;30.64;38.46;101372.47;5050804;28;20105;-63
2023/08/09 09:08:55;;;;;;;2.70;1.10;;;;;;;30.67;38.14;101368.34;5051070;28;20037;-63
2023/08/09 09:11:22;;;;;;;4.63;1.35;;;;;;;30.51;38.13;101368.06;5052120;28;20067;-63
2023/08/09 09:13:50;;;;;;;4.13;1.98;;;;;;;30.44;38.29;101364.63;5050725;28;20044;-62
2023/08/09 09:16:17;;;;;;;2.20;1.55;;;;;;;30.36;38.02;101370.50;5050644;28;20514;-65
2023/08/09 09:18:45;;;;;;;2.55;1.77;;;;;;;30.36;38.27;101370.50;5050651;28;20037;-63
2023/08/09 09:21:10;;;;;;;7.90;1.95;;;;;;;31.01;37.21;101364.59;5052306;28;20138;-63
2023/08/09 09:23:37;;;;;;;5.13;2.40;;;;;;;31.52;37.23;101375.41;5050757;28;20508;-63
2023/08/09 09:26:14;;;;;;;3.47;2.22;;;;;;;31.95;36.54;101376.56;5050830;28;20040;-63
2023/08/09 09:28:44;;;;;;;3.20;2.40;;;;;;;32.34;36.75;101369.88;5050809;28;20041;-63
2023/08/09 09:31:10;;;;;;;3.78;2.47;;;;;;;32.76;35.97;101370.09;5036250;28;20555;-63
2023/08/09 09:33:37;;;;;;;5.85;2.55;;;;;;;33.10;35.87;101366.00;5055640;28;20396;-63
2023/08/09 09:36:04;;;;;;;3.15;2.20;;;;;;;33.54;35.49;101371.31;5037711;28;20492;-63
2023/08/09 09:38:30;;;;;;;6.90;2.17;;;;;;;33.82;34.38;101370.94;5054518;28;20500;-63
2023/08/09 09:40:57;;;;;;;3.05;2.30;;;;;;;33.65;35.63;101376.69;5055592;28;20026;-63
2023/08/09 09:43:24;;;;;;;7.95;3.50;;;;;;;33.50;35.38;101382.13;5054262;28;20544;-63
2023/08/09 09:45:52;;;;;;;3.92;2.55;;;;;;;33.03;36.38;101379.22;5054307;28;20060;-63
2023/08/09 09:48:17;;;;;;;6.82;3.28;;;;;;;32.70;36.29;101383.06;5037652;28;20110;-66
2023/08/09 09:50:46;;;;;;;4.50;3.28;;;;;;;33.04;35.91;101393.94;5053832;28;20492;-64
2023/08/09 09:53:14;;;;;;;5.72;2.65;;;;;;;33.59;34.76;101397.22;5054026;28;20017;-63
2023/08/09 09:55:40;;;;;;;10.25;3.08;;;;;;;34.10;34.27;101391.97;5054498;28;20025;-63
2023/08/09 09:58:06;;;;;;;3.17;2.38;;;;;;;34.75;32.99;101396.97;5055571;28;20021;-63
2023/08/09 10:00:32;;;;;;;5.82;3.80;;;;;;;35.61;32.46;101392.28;5053901;28;20019;-64
2023/08/09 10:03:00;;;;;;;5.63;4.22;;;;;;;36.60;31.64;101402.56;5055196;28;20419;-64
2023/08/09 10:05:45;;;;;;;5.00;3.90;;;;;;;38.26;30.18;101389.88;5055309;28;20070;-64
2023/08/09 10:08:12;;;;;;;8.10;3.97;;;;;;;39.76;27.78;101396.19;5054060;28;20082;-64
2023/08/09 10:10:39;;;;;;;7.10;3.65;;;;;;;39.68;28.17;101382.88;5055022;28;20044;-64
2023/08/09 10:13:05;;;;;;;6.70;4.13;;;;;;;39.32;29.14;101391.09;5054123;28;20036;-64
2023/08/09 10:15:34;;;;;;;8.30;4.60;;;;;;;39.19;28.57;101391.88;5036671;28;20045;-64
2023/08/09 10:18:10;;;;;;;7.18;4.65;;;;;;;38.93;29.46;101382.22;5053868;28;20120;-63
2023/08/09 10:20:38;;;;;;;4.13;3.20;;;;;;;38.40;29.49;101389.97;5053947;28;20064;-64
2023/08/09 10:23:04;;;;;;;5.10;3.60;;;;;;;38.61;29.79;101387.75;5053824;28;20041;-64
2023/08/09 10:25:45;;;;;;;5.00;3.50;;;;;;;38.89;28.87;101387.59;5054903;28;20112;-64
2023/08/09 10:28:11;;;;;;;2.50;2.13;;;;;;;39.10;28.53;101390.06;5055056;28;20036;-64
2023/08/09 10:30:48;;;;;;;4.03;2.15;;;;;;;39.26;28.27;101386.72;5053964;28;20286;-64
2023/08/09 10:33:18;;;;;;;4.88;2.33;;;;;;;39.47;28.60;101382.44;5053757;28;20021;-64
2023/08/09 10:35:45;;;;;;;6.15;1.92;;;;;;;39.62;27.96;101377.66;5037486;28;20094;-64
2023/08/09 10:38:14;;;;;;;6.38;3.88;;;;;;;39.89;27.53;101384.16;5054830;28;20033;-64
2023/08/09 10:40:42;;;;;;;7.18;2.80;;;;;;;40.13;27.22;101383.97;5053323;28;20041;-64
2023/08/09 10:43:10;;;;;;;4.18;1.73;;;;;;;40.29;27.12;101385.28;5052655;28;20087;-65
2023/08/09 10:45:37;;;;;;;3.53;2.60;;;;;;;39.53;27.43;101394.38;5052983;28;20091;-64
2023/08/09 10:48:27;;;;;;;3.25;2.50;;;;;;;39.99;26.79;101380.31;5053191;28;20408;-64
2023/08/09 10:51:00;;;;;;;3.97;2.58;;;;;;;39.83;26.83;101390.19;5052887;28;20033;-63
2023/08/09 10:53:27;;;;;;;4.07;3.13;;;;;;;40.18;27.18;101386.66;5054253;28;20037;-64
2023/08/09 10:55:55;;;;;;;2.45;2.17;;;;;;;40.07;26.87;101391.66;5054155;28;20496;-64
2023/08/09 10:58:26;;;;;;;2.85;1.85;;;;;;;39.34;27.93;101400.03;5053972;28;20519;-64
2023/08/09 11:00:53;;;;;;;6.10;1.75;;;;;;;38.35;28.65;101407.69;5053695;28;20041;-64
2023/08/09 11:03:20;;;;;;;3.28;1.45;;;;;;;38.73;27.13;101416.13;5036490;28;20025;-64
2023/08/09 11:05:45;;;;;;;3.28;1.33;;;;;;;39.25;27.01;101415.94;5052715;28;20032;-64
2023/08/09 11:08:12;;;;;;;2.13;1.10;;;;;;;39.58;26.73;101411.97;5052454;28;20021;-64
2023/08/09 11:10:39;;;;;;;2.83;1.00;;;;;;;39.03;27.27;101409.25;5035880;28;20033;-64
2023/08/09 11:13:11;;;;;;;1.42;1.10;;;;;;;38.04;27.36;101417.56;5052850;28;20021;-64
2023/08/09 11:15:37;;;;;;;1.15;1.02;;;;;;;38.08;27.64;101418.63;5055569;28;20049;-64
2023/08/09 11:18:03;;;;;;;1.13;1.08;;;;;;;37.44;28.81;101421.00;5052724;28;20507;-64
2023/08/09 11:20:29;;;;;;;1.17;1.02;;;;;;;36.97;28.49;101418.81;5035655;28;20037;-64